This is the latest recevied weather packets stored in our database for station/object IW8ELN-10. If no packets are shown the sender has not sent any weather packets the latest 10 day(s).
| Time | Temp. | Humidity | Pressure | Rain* | Wind** | Luminosity | Snow |
|---|---|---|---|---|---|---|---|
| 1788598388 | 23.33° C | 52% | 992.9 hPa | - | - | - | - |
| 1788591186 | 22.22° C | 52% | 993.1 hPa | - | - | - | - |
| 1788583986 | 21.67° C | 51% | 993 hPa | - | - | - | - |
| 1788573188 | 22.22° C | 51% | 993 hPa | - | - | - | - |
| 1788569586 | 22.78° C | 51% | 993.1 hPa | - | - | - | - |
| 1788565986 | 22.78° C | 51% | 993.3 hPa | - | - | - | - |
| 1788562385 | 22.78° C | 50% | 993.4 hPa | - | - | - | - |
| 1788544392 | 25° C | 43% | 992 hPa | - | - | - | - |
| 1788533592 | 26.11° C | 33% | 991 hPa | - | - | - | - |
| 1788529987 | 25° C | 40% | 991.3 hPa | - | - | - | - |
| 1788522792 | 25° C | 39% | 992.3 hPa | - | - | - | - |
| 1788519192 | 23.89° C | 50% | 992.7 hPa | - | - | - | - |
| 1788515591 | 23.89° C | 48% | 993.1 hPa | - | - | - | - |
| 1788508395 | 22.78° C | 54% | 993.6 hPa | - | - | - | - |
| 1788501184 | 21.67° C | 55% | 993.2 hPa | - | - | - | - |
| 1788490390 | 22.22° C | 56% | 993.1 hPa | - | - | - | - |
| 1788486784 | 22.22° C | 56% | 992.9 hPa | - | - | - | - |
| 1788475983 | 23.33° C | 57% | 992.6 hPa | - | - | - | - |
| 1788472390 | 23.33° C | 58% | 992.3 hPa | - | - | - | - |
| 1788454382 | 25° C | 53% | 989.8 hPa | - | - | - | - |
| 1788450782 | 25.56° C | 49% | 989.4 hPa | - | - | - | - |
| 1788447182 | 25.56° C | 50% | 989 hPa | - | - | - | - |
| 1788443582 | 25.56° C | 46% | 989 hPa | - | - | - | - |
| 1788439982 | 25.56° C | 47% | 989.3 hPa | - | - | - | - |
| 1788436382 | 25° C | 53% | 989.8 hPa | - | - | - | - |
* Rain since midnight (hover to see other rain measurements)
** Current wind speed in m/s (hover to see current wind gust speed)